sensor_id;sensor_type;location;lat;lon;timestamp;pressure;altitude;pressure_sealevel;temperature;humidity
77281;BME280;66339;47.262;17.144;2024-02-04T00:00:18;100787.41;;;22.23;40.44
77281;BME280;66339;47.262;17.144;2024-02-04T00:02:48;100783.13;;;22.22;40.47
77281;BME280;66339;47.262;17.144;2024-02-04T00:05:15;100792.28;;;22.21;40.50
77281;BME280;66339;47.262;17.144;2024-02-04T00:07:42;100791.75;;;22.19;40.54
77281;BME280;66339;47.262;17.144;2024-02-04T00:10:09;100793.13;;;22.16;40.59
77281;BME280;66339;47.262;17.144;2024-02-04T00:12:36;100803.63;;;22.18;40.55
77281;BME280;66339;47.262;17.144;2024-02-04T00:15:03;100800.41;;;22.16;40.56
77281;BME280;66339;47.262;17.144;2024-02-04T00:17:30;100808.78;;;22.14;40.58
77281;BME280;66339;47.262;17.144;2024-02-04T00:19:57;100795.00;;;22.16;40.49
77281;BME280;66339;47.262;17.144;2024-02-04T00:22:24;100813.37;;;22.14;40.50
77281;BME280;66339;47.262;17.144;2024-02-04T00:24:54;100815.50;;;22.12;40.75
77281;BME280;66339;47.262;17.144;2024-02-04T00:27:20;100803.63;;;22.18;40.73
77281;BME280;66339;47.262;17.144;2024-02-04T00:29:47;100802.78;;;22.22;40.65
77281;BME280;66339;47.262;17.144;2024-02-04T00:32:14;100800.88;;;22.23;40.62
77281;BME280;66339;47.262;17.144;2024-02-04T00:34:41;100805.47;;;22.22;40.65
77281;BME280;66339;47.262;17.144;2024-02-04T00:37:08;100800.38;;;22.21;40.67
77281;BME280;66339;47.262;17.144;2024-02-04T00:39:35;100799.84;;;22.19;40.72
77281;BME280;66339;47.262;17.144;2024-02-04T00:42:01;100798.25;;;22.18;40.73
77281;BME280;66339;47.262;17.144;2024-02-04T00:44:28;100802.03;;;22.17;40.79
77281;BME280;66339;47.262;17.144;2024-02-04T00:46:58;100796.09;;;22.15;40.82
77281;BME280;66339;47.262;17.144;2024-02-04T00:49:25;100795.56;;;22.13;40.86
77281;BME280;66339;47.262;17.144;2024-02-04T00:51:52;100798.53;;;22.11;40.92
77281;BME280;66339;47.262;17.144;2024-02-04T00:54:19;100796.13;;;22.10;40.89
77281;BME280;66339;47.262;17.144;2024-02-04T00:56:46;100788.31;;;22.08;40.90
77281;BME280;66339;47.262;17.144;2024-02-04T00:59:12;100786.72;;;22.07;41.00
77281;BME280;66339;47.262;17.144;2024-02-04T01:01:39;100791.84;;;22.03;41.01
77281;BME280;66339;47.262;17.144;2024-02-04T01:04:06;100793.75;;;22.03;41.03
77281;BME280;66339;47.262;17.144;2024-02-04T01:06:33;100796.72;;;22.01;41.05
77281;BME280;66339;47.262;17.144;2024-02-04T01:09:16;100793.00;;;21.97;41.09
77281;BME280;66339;47.262;17.144;2024-02-04T01:11:43;100787.88;;;21.96;41.10
77281;BME280;66339;47.262;17.144;2024-02-04T01:14:10;100781.97;;;21.94;41.10
77281;BME280;66339;47.262;17.144;2024-02-04T01:16:36;100775.78;;;21.93;41.06
77281;BME280;66339;47.262;17.144;2024-02-04T01:19:03;100772.56;;;21.91;41.13
77281;BME280;66339;47.262;17.144;2024-02-04T01:21:30;100759.63;;;21.88;41.14
77281;BME280;66339;47.262;17.144;2024-02-04T01:23:57;100766.13;;;21.87;41.13
77281;BME280;66339;47.262;17.144;2024-02-04T01:26:23;100768.31;;;21.85;41.23
77281;BME280;66339;47.262;17.144;2024-02-04T01:28:50;100776.37;;;21.85;41.21
77281;BME280;66339;47.262;17.144;2024-02-04T01:31:17;100765.87;;;21.84;41.24
77281;BME280;66339;47.262;17.144;2024-02-04T01:33:44;100763.47;;;21.82;41.29
77281;BME280;66339;47.262;17.144;2024-02-04T01:36:11;100765.63;;;21.80;41.27
77281;BME280;66339;47.262;17.144;2024-02-04T01:38:38;100758.66;;;21.79;41.30
77281;BME280;66339;47.262;17.144;2024-02-04T01:41:05;100757.03;;;21.78;41.34
77281;BME280;66339;47.262;17.144;2024-02-04T01:43:32;100776.16;;;21.76;41.33
77281;BME280;66339;47.262;17.144;2024-02-04T01:45:58;100783.44;;;21.76;41.36
77281;BME280;66339;47.262;17.144;2024-02-04T01:48:25;100777.53;;;21.74;41.43
77281;BME280;66339;47.262;17.144;2024-02-04T01:50:53;100781.28;;;21.73;41.42
77281;BME280;66339;47.262;17.144;2024-02-04T01:53:22;100775.91;;;21.73;41.39
77281;BME280;66339;47.262;17.144;2024-02-04T01:55:48;100767.31;;;21.71;41.48
77281;BME280;66339;47.262;17.144;2024-02-04T01:58:19;100767.31;;;21.71;41.45
77281;BME280;66339;47.262;17.144;2024-02-04T02:00:46;100762.22;;;21.69;41.47
77281;BME280;66339;47.262;17.144;2024-02-04T02:03:18;100768.66;;;21.68;41.47
77281;BME280;66339;47.262;17.144;2024-02-04T02:05:46;100773.25;;;21.68;41.48
77281;BME280;66339;47.262;17.144;2024-02-04T02:08:13;100755.50;;;21.67;41.52
77281;BME280;66339;47.262;17.144;2024-02-04T02:10:40;100761.69;;;21.67;41.58
77281;BME280;66339;47.262;17.144;2024-02-04T02:13:11;100761.97;;;21.66;41.58
77281;BME280;66339;47.262;17.144;2024-02-04T02:15:43;100748.78;;;21.64;41.58
77281;BME280;66339;47.262;17.144;2024-02-04T02:18:59;100756.84;;;21.64;41.54
77281;BME280;66339;47.262;17.144;2024-02-04T02:23:36;100758.22;;;21.62;41.53
77281;BME280;66339;47.262;17.144;2024-02-04T02:26:07;100752.03;;;21.61;41.52
77281;BME280;66339;47.262;17.144;2024-02-04T02:28:34;100741.53;;;21.60;41.52
77281;BME280;66339;47.262;17.144;2024-02-04T02:31:01;100749.63;;;21.60;41.49
77281;BME280;66339;47.262;17.144;2024-02-04T02:33:33;100748.81;;;21.59;41.52
77281;BME280;66339;47.262;17.144;2024-02-04T02:36:00;100759.88;;;21.58;41.50
77281;BME280;66339;47.262;17.144;2024-02-04T02:38:44;100757.19;;;21.58;41.60
77281;BME280;66339;47.262;17.144;2024-02-04T02:41:13;100745.59;;;21.57;41.51
77281;BME280;66339;47.262;17.144;2024-02-04T02:43:42;100737.81;;;21.55;41.45
77281;BME280;66339;47.262;17.144;2024-02-04T02:46:13;100737.00;;;21.55;41.58
77281;BME280;66339;47.262;17.144;2024-02-04T02:48:40;100728.37;;;21.53;41.49
77281;BME280;66339;47.262;17.144;2024-02-04T02:51:12;100716.81;;;21.52;41.50
77281;BME280;66339;47.262;17.144;2024-02-04T02:53:38;100720.59;;;21.51;41.45
77281;BME280;66339;47.262;17.144;2024-02-04T02:56:06;100723.81;;;21.53;41.47
77281;BME280;66339;47.262;17.144;2024-02-04T02:58:32;100713.62;;;21.50;41.44
77281;BME280;66339;47.262;17.144;2024-02-04T03:00:59;100719.81;;;21.51;41.41
77281;BME280;66339;47.262;17.144;2024-02-04T03:03:26;100719.00;;;21.50;41.46
77281;BME280;66339;47.262;17.144;2024-02-04T03:05:53;100728.13;;;21.49;41.40
77281;BME280;66339;47.262;17.144;2024-02-04T03:08:20;100723.59;;;21.50;41.43
77281;BME280;66339;47.262;17.144;2024-02-04T03:10:47;100722.75;;;21.49;41.42
77281;BME280;66339;47.262;17.144;2024-02-04T03:13:14;100731.94;;;21.48;41.42
77281;BME280;66339;47.262;17.144;2024-02-04T03:15:41;100719.56;;;21.47;41.42
77281;BME280;66339;47.262;17.144;2024-02-04T03:18:08;100723.34;;;21.46;41.43
77281;BME280;66339;47.262;17.144;2024-02-04T03:20:35;100723.34;;;21.46;41.39
77281;BME280;66339;47.262;17.144;2024-02-04T03:23:01;100717.16;;;21.46;41.35
77281;BME280;66339;47.262;17.144;2024-02-04T03:25:28;100723.88;;;21.43;41.43
77281;BME280;66339;47.262;17.144;2024-02-04T03:27:55;100718.50;;;21.43;41.39
77281;BME280;66339;47.262;17.144;2024-02-04T03:30:22;100717.72;;;21.43;41.37
77281;BME280;66339;47.262;17.144;2024-02-04T03:32:49;100722.28;;;21.42;41.38
77281;BME280;66339;47.262;17.144;2024-02-04T03:35:16;100723.34;;;21.41;41.35
77281;BME280;66339;47.262;17.144;2024-02-04T03:37:42;100722.84;;;21.39;41.36
77281;BME280;66339;47.262;17.144;2024-02-04T03:40:10;100719.06;;;21.40;41.34
77281;BME280;66339;47.262;17.144;2024-02-04T03:42:37;100737.91;;;21.40;41.34
77281;BME280;66339;47.262;17.144;2024-02-04T03:45:04;100744.38;;;21.39;41.32
77281;BME280;66339;47.262;17.144;2024-02-04T03:47:31;100737.38;;;21.38;41.31
77281;BME280;66339;47.262;17.144;2024-02-04T03:49:58;100746.53;;;21.37;41.35
77281;BME280;66339;47.262;17.144;2024-02-04T03:52:27;100741.13;;;21.37;41.38
77281;BME280;66339;47.262;17.144;2024-02-04T03:54:54;100763.47;;;21.38;41.38
77281;BME280;66339;47.262;17.144;2024-02-04T03:57:21;100761.88;;;21.37;41.31
77281;BME280;66339;47.262;17.144;2024-02-04T03:59:51;100750.28;;;21.36;41.34
77281;BME280;66339;47.262;17.144;2024-02-04T04:02:18;100759.47;;;21.35;41.33
77281;BME280;66339;47.262;17.144;2024-02-04T04:04:44;100757.84;;;21.34;41.36
77281;BME280;66339;47.262;17.144;2024-02-04T04:07:11;100737.41;;;21.33;41.37
77281;BME280;66339;47.262;17.144;2024-02-04T04:09:38;100746.53;;;21.32;41.39
77281;BME280;66339;47.262;17.144;2024-02-04T04:12:08;100753.00;;;21.31;41.41
77281;BME280;66339;47.262;17.144;2024-02-04T04:14:35;100760.25;;;21.30;41.37
77281;BME280;66339;47.262;17.144;2024-02-04T04:17:02;100762.97;;;21.30;41.44
77281;BME280;66339;47.262;17.144;2024-02-04T04:19:29;100762.41;;;21.28;41.43
77281;BME280;66339;47.262;17.144;2024-02-04T04:21:56;100764.31;;;21.28;41.42
77281;BME280;66339;47.262;17.144;2024-02-04T04:24:23;100760.00;;;21.27;41.41
77281;BME280;66339;47.262;17.144;2024-02-04T04:26:52;100750.31;;;21.26;41.43
77281;BME280;66339;47.262;17.144;2024-02-04T04:29:20;100738.75;;;21.25;41.44
77281;BME280;66339;47.262;17.144;2024-02-04T04:31:47;100740.12;;;21.23;41.46
77281;BME280;66339;47.262;17.144;2024-02-04T04:34:13;100735.53;;;21.23;41.48
77281;BME280;66339;47.262;17.144;2024-02-04T04:36:41;100727.72;;;21.22;41.55
77281;BME280;66339;47.262;17.144;2024-02-04T04:39:07;100708.41;;;21.20;41.50
77281;BME280;66339;47.262;17.144;2024-02-04T04:41:34;100715.37;;;21.21;41.49
77281;BME280;66339;47.262;17.144;2024-02-04T04:44:02;100727.72;;;21.22;41.48
77281;BME280;66339;47.262;17.144;2024-02-04T04:46:28;100729.91;;;21.20;41.49
77281;BME280;66339;47.262;17.144;2024-02-04T04:48:55;100714.87;;;21.19;41.50
77281;BME280;66339;47.262;17.144;2024-02-04T04:51:22;100698.72;;;21.19;41.49
77281;BME280;66339;47.262;17.144;2024-02-04T04:53:49;100711.37;;;21.18;41.42
77281;BME280;66339;47.262;17.144;2024-02-04T04:56:16;100718.59;;;21.18;41.43
77281;BME280;66339;47.262;17.144;2024-02-04T04:58:43;100725.09;;;21.17;41.38
77281;BME280;66339;47.262;17.144;2024-02-04T05:01:12;100707.06;;;21.17;41.41
77281;BME280;66339;47.262;17.144;2024-02-04T05:03:40;100703.56;;;21.17;41.41
77281;BME280;66339;47.262;17.144;2024-02-04T05:06:06;100692.81;;;21.17;41.45
77281;BME280;66339;47.262;17.144;2024-02-04T05:08:33;100680.44;;;21.16;41.44
77281;BME280;66339;47.262;17.144;2024-02-04T05:11:00;100684.22;;;21.15;41.43
77281;BME280;66339;47.262;17.144;2024-02-04T05:13:27;100680.44;;;21.16;41.41
77281;BME280;66339;47.262;17.144;2024-02-04T05:15:54;100678.00;;;21.14;41.43
77281;BME280;66339;47.262;17.144;2024-02-04T05:18:20;100672.91;;;21.13;41.44
77281;BME280;66339;47.262;17.144;2024-02-04T05:20:47;100670.22;;;21.13;41.44
77281;BME280;66339;47.262;17.144;2024-02-04T05:23:14;100673.22;;;21.11;41.55
77281;BME280;66339;47.262;17.144;2024-02-04T05:25:44;100684.78;;;21.12;41.48
77281;BME280;66339;47.262;17.144;2024-02-04T05:28:11;100702.00;;;21.11;41.47
77281;BME280;66339;47.262;17.144;2024-02-04T05:30:38;100727.25;;;21.09;41.34
77281;BME280;66339;47.262;17.144;2024-02-04T05:33:04;100754.16;;;21.09;42.26
77281;BME280;66339;47.262;17.144;2024-02-04T05:35:31;100743.44;;;21.04;42.17
77281;BME280;66339;47.262;17.144;2024-02-04T05:37:58;100751.53;;;20.99;42.85
77281;BME280;66339;47.262;17.144;2024-02-04T05:40:25;100752.59;;;20.98;42.86
77281;BME280;66339;47.262;17.144;2024-02-04T05:42:52;100752.59;;;20.98;41.84
77281;BME280;66339;47.262;17.144;2024-02-04T05:45:22;100753.94;;;21.01;41.65
77281;BME280;66339;47.262;17.144;2024-02-04T05:47:49;100742.63;;;21.04;41.40
77281;BME280;66339;47.262;17.144;2024-02-04T05:50:16;100745.56;;;21.07;41.15
77281;BME280;66339;47.262;17.144;2024-02-04T05:52:43;100733.72;;;21.08;41.13
77281;BME280;66339;47.262;17.144;2024-02-04T05:55:10;100746.63;;;21.12;40.94
77281;BME280;66339;47.262;17.144;2024-02-04T05:57:37;100759.53;;;21.15;40.87
77281;BME280;66339;47.262;17.144;2024-02-04T06:00:04;100774.59;;;21.16;40.72
77281;BME280;66339;47.262;17.144;2024-02-04T06:02:31;100760.06;;;21.17;40.66
77281;BME280;66339;47.262;17.144;2024-02-04T06:04:58;100755.22;;;21.19;40.54
77281;BME280;66339;47.262;17.144;2024-02-04T06:07:24;100754.41;;;21.18;40.49
77281;BME280;66339;47.262;17.144;2024-02-04T06:09:51;100765.44;;;21.17;40.45
77281;BME280;66339;47.262;17.144;2024-02-04T06:12:18;100760.06;;;21.17;40.46
77281;BME280;66339;47.262;17.144;2024-02-04T06:14:45;100761.12;;;21.16;40.41
77281;BME280;66339;47.262;17.144;2024-02-04T06:17:12;100779.97;;;21.16;40.44
77281;BME280;66339;47.262;17.144;2024-02-04T06:19:38;100787.25;;;21.15;40.48
77281;BME280;66339;47.262;17.144;2024-02-04T06:22:05;100779.97;;;21.16;40.44
77281;BME280;66339;47.262;17.144;2024-02-04T06:24:32;100781.06;;;21.15;40.38
77281;BME280;66339;47.262;17.144;2024-02-04T06:26:58;100804.44;;;21.14;40.43
77281;BME280;66339;47.262;17.144;2024-02-04T06:29:25;100796.13;;;21.11;40.36
77281;BME280;66339;47.262;17.144;2024-02-04T06:31:52;100805.81;;;21.12;40.30
77281;BME280;66339;47.262;17.144;2024-02-04T06:34:18;100813.06;;;21.11;40.26
77281;BME280;66339;47.262;17.144;2024-02-04T06:36:45;100801.50;;;21.11;40.27
77281;BME280;66339;47.262;17.144;2024-02-04T06:39:12;100818.72;;;21.09;40.32
77281;BME280;66339;47.262;17.144;2024-02-04T06:41:41;100821.41;;;21.09;40.80
77281;BME280;66339;47.262;17.144;2024-02-04T06:44:08;100815.22;;;21.09;42.35
77281;BME280;66339;47.262;17.144;2024-02-04T06:46:34;100805.84;;;21.06;42.28
77281;BME280;66339;47.262;17.144;2024-02-04T06:49:01;100807.44;;;21.02;42.24
77281;BME280;66339;47.262;17.144;2024-02-04T06:51:28;100816.06;;;20.99;41.74
77281;BME280;66339;47.262;17.144;2024-02-04T06:53:58;100817.13;;;20.98;41.60
77281;BME280;66339;47.262;17.144;2024-02-04T06:56:27;100823.59;;;20.97;41.54
77281;BME280;66339;47.262;17.144;2024-02-04T06:58:57;100810.44;;;20.96;41.45
77281;BME280;66339;47.262;17.144;2024-02-04T07:01:24;100801.56;;;20.95;41.25
77281;BME280;66339;47.262;17.144;2024-02-04T07:03:51;100801.56;;;20.95;41.36
77281;BME280;66339;47.262;17.144;2024-02-04T07:06:18;100816.63;;;20.96;41.32
77281;BME280;66339;47.262;17.144;2024-02-04T07:08:48;100807.47;;;20.97;41.28
77281;BME280;66339;47.262;17.144;2024-02-04T07:11:16;100810.69;;;20.99;41.27
77281;BME280;66339;47.262;17.144;2024-02-04T07:13:45;100826.25;;;21.02;41.25
77281;BME280;66339;47.262;17.144;2024-02-04T07:16:12;100827.09;;;21.03;41.22
77281;BME280;66339;47.262;17.144;2024-02-04T07:18:38;100827.34;;;21.06;41.20
77281;BME280;66339;47.262;17.144;2024-02-04T07:21:05;100834.34;;;21.07;41.10
77281;BME280;66339;47.262;17.144;2024-02-04T07:23:32;100835.12;;;21.08;41.25
77281;BME280;66339;47.262;17.144;2024-02-04T07:25:58;100839.16;;;21.11;41.05
77281;BME280;66339;47.262;17.144;2024-02-04T07:28:25;100823.03;;;21.11;41.00
77281;BME280;66339;47.262;17.144;2024-02-04T07:30:52;100830.00;;;21.12;40.97
77281;BME280;66339;47.262;17.144;2024-02-04T07:33:18;100838.09;;;21.12;40.94
77281;BME280;66339;47.262;17.144;2024-02-04T07:35:45;100835.41;;;21.12;40.94
77281;BME280;66339;47.262;17.144;2024-02-04T07:38:12;100830.00;;;21.12;40.87
77281;BME280;66339;47.262;17.144;2024-02-04T07:40:39;100834.59;;;21.11;40.89
77281;BME280;66339;47.262;17.144;2024-02-04T07:43:05;100825.72;;;21.11;40.84
77281;BME280;66339;47.262;17.144;2024-02-04T07:45:32;100816.81;;;21.10;40.85
77281;BME280;66339;47.262;17.144;2024-02-04T07:47:59;100817.66;;;21.11;40.75
77281;BME280;66339;47.262;17.144;2024-02-04T07:50:26;100821.41;;;21.09;40.78
77281;BME280;66339;47.262;17.144;2024-02-04T07:52:52;100818.19;;;21.07;40.80
77281;BME280;66339;47.262;17.144;2024-02-04T07:55:23;100831.09;;;21.05;40.75
77281;BME280;66339;47.262;17.144;2024-02-04T07:57:50;100818.75;;;21.04;40.77
77281;BME280;66339;47.262;17.144;2024-02-04T08:00:17;100818.47;;;21.01;40.93
77281;BME280;66339;47.262;17.144;2024-02-04T08:02:44;100816.06;;;20.99;41.44
77281;BME280;66339;47.262;17.144;2024-02-04T08:05:11;100812.81;;;21.02;41.08
77281;BME280;66339;47.262;17.144;2024-02-04T08:07:38;100799.37;;;21.02;41.27
77281;BME280;66339;47.262;17.144;2024-02-04T08:10:05;100796.97;;;21.01;41.27
77281;BME280;66339;47.262;17.144;2024-02-04T08:12:32;100812.28;;;21.00;41.19
77281;BME280;66339;47.262;17.144;2024-02-04T08:15:00;100819.81;;;20.98;41.35
77281;BME280;66339;47.262;17.144;2024-02-04T08:17:31;100819.31;;;20.96;41.31
77281;BME280;66339;47.262;17.144;2024-02-04T08:19:57;100825.75;;;20.95;41.36
77281;BME280;66339;47.262;17.144;2024-02-04T08:22:24;100824.13;;;20.94;41.53
77281;BME280;66339;47.262;17.144;2024-02-04T08:24:51;100810.94;;;20.98;41.87
77281;BME280;66339;47.262;17.144;2024-02-04T08:27:18;100816.06;;;20.99;41.90
77281;BME280;66339;47.262;17.144;2024-02-04T08:29:44;100808.53;;;21.01;42.02
77281;BME280;66339;47.262;17.144;2024-02-04T08:32:11;100806.87;;;21.05;41.99
77281;BME280;66339;47.262;17.144;2024-02-04T08:34:38;100795.88;;;21.07;41.77
77281;BME280;66339;47.262;17.144;2024-02-04T08:37:05;100807.94;;;21.09;42.45
77281;BME280;66339;47.262;17.144;2024-02-04T08:39:31;100794.50;;;21.09;42.63
77281;BME280;66339;47.262;17.144;2024-02-04T08:41:58;100795.59;;;21.08;42.45
77281;BME280;66339;47.262;17.144;2024-02-04T08:44:25;100785.91;;;21.07;42.65
77281;BME280;66339;47.262;17.144;2024-02-04T08:47:04;100795.88;;;21.07;42.40
77281;BME280;66339;47.262;17.144;2024-02-04T08:49:31;100796.13;;;21.05;42.33
77281;BME280;66339;47.262;17.144;2024-02-04T08:51:58;100788.06;;;21.05;42.45
77281;BME280;66339;47.262;17.144;2024-02-04T08:54:28;100781.09;;;21.04;42.00
77281;BME280;66339;47.262;17.144;2024-02-04T08:56:58;100786.19;;;21.06;41.60
77281;BME280;66339;47.262;17.144;2024-02-04T08:59:25;100781.88;;;21.05;40.07
77281;BME280;66339;47.262;17.144;2024-02-04T09:01:52;100784.34;;;20.96;39.97
77281;BME280;66339;47.262;17.144;2024-02-04T09:04:19;100787.59;;;20.88;40.13
77281;BME280;66339;47.262;17.144;2024-02-04T09:06:48;100783.88;;;20.79;40.37
77281;BME280;66339;47.262;17.144;2024-02-04T09:09:18;100775.28;;;20.67;40.81
77281;BME280;66339;47.262;17.144;2024-02-04T09:11:45;100778.53;;;20.64;40.85
77281;BME280;66339;47.262;17.144;2024-02-04T09:14:15;100771.00;;;20.50;40.26
77281;BME280;66339;47.262;17.144;2024-02-04T09:16:41;100777.97;;;20.51;39.63
77281;BME280;66339;47.262;17.144;2024-02-04T09:19:08;100781.75;;;20.50;39.88
77281;BME280;66339;47.262;17.144;2024-02-04T09:21:38;100791.16;;;20.53;39.87
77281;BME280;66339;47.262;17.144;2024-02-04T09:24:05;100791.44;;;20.56;39.14
77281;BME280;66339;47.262;17.144;2024-02-04T09:26:31;100790.91;;;20.49;38.82
77281;BME280;66339;47.262;17.144;2024-02-04T09:28:58;100786.56;;;20.43;39.32
77281;BME280;66339;47.262;17.144;2024-02-04T09:31:24;100798.66;;;20.35;39.30
77281;BME280;66339;47.262;17.144;2024-02-04T09:33:51;100791.41;;;20.46;39.45
77281;BME280;66339;47.262;17.144;2024-02-04T09:36:18;100795.75;;;20.52;39.38
77281;BME280;66339;47.262;17.144;2024-02-04T09:38:45;100796.81;;;20.56;39.12
77281;BME280;66339;47.262;17.144;2024-02-04T09:41:12;100802.44;;;20.60;39.11
77281;BME280;66339;47.262;17.144;2024-02-04T09:43:38;100812.41;;;20.59;38.81
77281;BME280;66339;47.262;17.144;2024-02-04T09:46:09;100804.84;;;20.62;38.71
77281;BME280;66339;47.262;17.144;2024-02-04T09:48:36;100810.75;;;20.58;38.89
77281;BME280;66339;47.262;17.144;2024-02-04T09:51:03;100804.88;;;20.56;38.34
77281;BME280;66339;47.262;17.144;2024-02-04T09:53:33;100788.75;;;20.56;39.14
77281;BME280;66339;47.262;17.144;2024-02-04T09:56:03;100778.50;;;20.58;38.79
77281;BME280;66339;47.262;17.144;2024-02-04T09:58:30;100774.78;;;20.59;38.36
77281;BME280;66339;47.262;17.144;2024-02-04T10:00:57;100774.78;;;20.59;38.29
77281;BME280;66339;47.262;17.144;2024-02-04T10:03:23;100779.59;;;20.57;38.85
77281;BME280;66339;47.262;17.144;2024-02-04T10:05:50;100779.59;;;20.63;38.56
77281;BME280;66339;47.262;17.144;2024-02-04T10:08:17;100779.59;;;20.63;38.45
77281;BME280;66339;47.262;17.144;2024-02-04T10:10:47;100765.63;;;20.61;38.61
77281;BME280;66339;47.262;17.144;2024-02-04T10:13:14;100758.66;;;20.59;38.60
77281;BME280;66339;47.262;17.144;2024-02-04T10:15:41;100761.31;;;20.54;38.37
77281;BME280;66339;47.262;17.144;2024-02-04T10:18:07;100764.28;;;20.58;38.61
77281;BME280;66339;47.262;17.144;2024-02-04T10:20:34;100744.94;;;20.61;37.85
77281;BME280;66339;47.262;17.144;2024-02-04T10:23:01;100748.97;;;20.64;37.91
77281;BME280;66339;47.262;17.144;2024-02-04T10:25:28;100736.03;;;20.66;37.26
77281;BME280;66339;47.262;17.144;2024-02-04T10:27:54;100735.25;;;20.65;37.15
77281;BME280;66339;47.262;17.144;2024-02-04T10:30:21;100727.47;;;20.64;37.18
77281;BME280;66339;47.262;17.144;2024-02-04T10:32:51;100715.88;;;20.63;37.00
77281;BME280;66339;47.262;17.144;2024-02-04T10:35:19;100709.16;;;20.66;37.31
77281;BME280;66339;47.262;17.144;2024-02-04T10:37:46;100704.06;;;20.64;37.01
77281;BME280;66339;47.262;17.144;2024-02-04T10:40:12;100719.66;;;20.67;37.38
77281;BME280;66339;47.262;17.144;2024-02-04T10:42:39;100714.00;;;20.69;37.68
77281;BME280;66339;47.262;17.144;2024-02-04T10:45:11;100701.06;;;20.71;37.40
77281;BME280;66339;47.262;17.144;2024-02-04T10:47:38;100707.00;;;20.73;37.23
77281;BME280;66339;47.262;17.144;2024-02-04T10:50:05;100701.91;;;20.71;36.82
77281;BME280;66339;47.262;17.144;2024-02-04T10:52:35;100706.44;;;20.71;37.79
77281;BME280;66339;47.262;17.144;2024-02-04T10:55:04;100693.56;;;20.73;37.82
77281;BME280;66339;47.262;17.144;2024-02-04T10:57:31;100691.94;;;20.72;37.68
77281;BME280;66339;47.262;17.144;2024-02-04T10:59:58;100702.69;;;20.72;37.14
77281;BME280;66339;47.262;17.144;2024-02-04T11:02:25;100709.69;;;20.63;34.85
77281;BME280;66339;47.262;17.144;2024-02-04T11:04:53;100701.19;;;20.25;35.74
77281;BME280;66339;47.262;17.144;2024-02-04T11:07:19;100682.94;;;20.17;35.76
77281;BME280;66339;47.262;17.144;2024-02-04T11:09:50;100675.97;;;20.05;35.98
77281;BME280;66339;47.262;17.144;2024-02-04T11:12:18;100670.06;;;19.98;36.16
77281;BME280;66339;47.262;17.144;2024-02-04T11:14:50;100659.34;;;19.93;36.12
77281;BME280;66339;47.262;17.144;2024-02-04T11:17:28;100655.59;;;19.89;36.97
77281;BME280;66339;47.262;17.144;2024-02-04T11:25:19;100633.53;;;20.07;40.20
77281;BME280;66339;47.262;17.144;2024-02-04T11:27:53;100634.59;;;20.17;40.44
77281;BME280;66339;47.262;17.144;2024-02-04T11:30:19;100638.34;;;20.21;40.42
77281;BME280;66339;47.262;17.144;2024-02-04T11:32:46;100615.75;;;20.27;40.52
77281;BME280;66339;47.262;17.144;2024-02-04T11:35:13;100638.28;;;20.31;40.76
77281;BME280;66339;47.262;17.144;2024-02-04T11:37:40;100613.06;;;20.32;40.85
77281;BME280;66339;47.262;17.144;2024-02-04T11:40:07;100624.88;;;20.36;41.06
77281;BME280;66339;47.262;17.144;2024-02-04T11:42:34;100625.94;;;20.40;40.82
77281;BME280;66339;47.262;17.144;2024-02-04T11:45:07;100615.19;;;20.40;40.81
77281;BME280;66339;47.262;17.144;2024-02-04T11:47:34;100615.44;;;20.44;40.86
77281;BME280;66339;47.262;17.144;2024-02-04T11:50:03;100609.53;;;20.42;41.26
77281;BME280;66339;47.262;17.144;2024-02-04T11:52:30;100612.47;;;20.45;41.73
77281;BME280;66339;47.262;17.144;2024-02-04T11:54:57;100612.47;;;20.45;41.90
77281;BME280;66339;47.262;17.144;2024-02-04T11:57:27;100614.06;;;20.46;41.80
77281;BME280;66339;47.262;17.144;2024-02-04T11:59:58;100612.47;;;20.50;41.99
77281;BME280;66339;47.262;17.144;2024-02-04T12:02:24;100607.63;;;20.52;42.06
77281;BME280;66339;47.262;17.144;2024-02-04T12:04:54;100597.69;;;20.53;42.22
77281;BME280;66339;47.262;17.144;2024-02-04T12:07:24;100600.63;;;20.51;42.38
77281;BME280;66339;47.262;17.144;2024-02-04T12:09:51;100599.03;;;20.55;42.59
77281;BME280;66339;47.262;17.144;2024-02-04T12:12:18;100596.34;;;20.55;42.95
77281;BME280;66339;47.262;17.144;2024-02-04T12:14:45;100595.50;;;20.55;42.65
77281;BME280;66339;47.262;17.144;2024-02-04T12:17:16;100598.19;;;20.60;42.72
77281;BME280;66339;47.262;17.144;2024-02-04T12:19:42;100597.63;;;20.63;42.82
77281;BME280;66339;47.262;17.144;2024-02-04T12:22:10;100595.22;;;20.62;42.85
77281;BME280;66339;47.262;17.144;2024-02-04T12:24:40;100595.22;;;20.62;42.31
77281;BME280;66339;47.262;17.144;2024-02-04T12:27:08;100582.31;;;20.64;42.51
77281;BME280;66339;47.262;17.144;2024-02-04T12:29:35;100582.31;;;20.64;42.76
77281;BME280;66339;47.262;17.144;2024-02-04T12:32:02;100585.53;;;20.66;42.69
77281;BME280;66339;47.262;17.144;2024-02-04T12:34:30;100576.91;;;20.69;42.77
77281;BME280;66339;47.262;17.144;2024-02-04T12:37:01;100572.03;;;20.71;42.75
77281;BME280;66339;47.262;17.144;2024-02-04T12:39:31;100587.66;;;20.69;41.92
77281;BME280;66339;47.262;17.144;2024-02-04T12:41:58;100578.00;;;20.63;41.41
77281;BME280;66339;47.262;17.144;2024-02-04T12:44:25;100585.00;;;20.58;41.84
77281;BME280;66339;47.262;17.144;2024-02-04T12:46:56;100579.13;;;20.56;42.14
77281;BME280;66339;47.262;17.144;2024-02-04T12:49:29;100572.16;;;20.55;42.69